Time;durP1;ratioP1;P1;durP2;ratioP2;P2;SDS_P1;SDS_P2;PMS_P1;PMS_P2;Temp;Humidity;BMP_temperature;BMP_pressure;BME280_temperature;BME280_humidity;BME280_pressure;Samples;Min_cycle;Max_cycle;Signal;HPM_P1;HPM_P2
2021/06/20 00:02:06;;;;;;;13.20;11.30;;;;;;;;;;5135153;27;20442;-67
2021/06/20 00:04:33;;;;;;;13.27;11.67;;;;;;;;;;5121511;27;20442;-68
2021/06/20 00:07:00;;;;;;;14.07;12.67;;;;;;;;;;5115222;28;20900;-67
2021/06/20 00:09:29;;;;;;;14.60;13.10;;;;;;;;;;5120426;27;20537;-68
2021/06/20 00:11:56;;;;;;;13.83;12.40;;;;;;;;;;5126798;27;20461;-68
2021/06/20 00:14:23;;;;;;;15.43;13.60;;;;;;;;;;5117419;27;20538;-68
2021/06/20 00:16:50;;;;;;;15.03;13.23;;;;;;;;;;5123284;27;21001;-68
2021/06/20 00:19:17;;;;;;;14.90;13.70;;;;;;;;;;5121739;27;20537;-68
2021/06/20 00:21:45;;;;;;;15.93;14.47;;;;;;;;;;5114622;28;20480;-68
2021/06/20 00:24:12;;;;;;;17.60;15.70;;;;;;;;;;5114962;28;20452;-70
2021/06/20 00:26:40;;;;;;;18.03;16.13;;;;;;;;;;5114882;28;20445;-69
2021/06/20 00:29:08;;;;;;;19.37;17.33;;;;;;;;;;5114561;28;20937;-68
2021/06/20 00:31:35;;;;;;;21.40;19.17;;;;;;;;;;5132513;27;20454;-66
2021/06/20 00:34:02;;;;;;;24.30;18.63;;;;;;;;;;5134897;27;20438;-67
2021/06/20 00:36:29;;;;;;;19.37;17.27;;;;;;;;;;5127792;27;20869;-66
2021/06/20 00:38:56;;;;;;;22.30;20.10;;;;;;;;;;5120518;27;20797;-67
2021/06/20 00:41:24;;;;;;;21.47;18.23;;;;;;;;;;5131695;27;20504;-67
2021/06/20 00:43:53;;;;;;;17.40;15.80;;;;;;;;;;5135030;27;20674;-67
2021/06/20 00:46:20;;;;;;;16.70;15.07;;;;;;;;;;5122043;27;20529;-67
2021/06/20 00:48:47;;;;;;;12.77;10.80;;;;;;;;;;5125846;27;20525;-67
2021/06/20 00:51:15;;;;;;;17.13;15.10;;;;;;;;;;5127784;27;20471;-67
2021/06/20 00:53:42;;;;;;;16.50;13.03;;;;;;;;;;5134886;27;20442;-66
2021/06/20 00:56:09;;;;;;;17.93;16.10;;;;;;;;;;5132810;27;20445;-66
2021/06/20 00:58:36;;;;;;;19.80;16.50;;;;;;;;;;5127055;27;20544;-66
2021/06/20 01:01:05;;;;;;;23.40;19.77;;;;;;;;;;5134550;27;20473;-66
2021/06/20 01:03:32;;;;;;;24.23;20.20;;;;;;;;;;5134766;27;20442;-66
2021/06/20 01:06:00;;;;;;;28.50;19.90;;;;;;;;;;5134577;27;20450;-66
2021/06/20 01:08:28;;;;;;;22.43;16.53;;;;;;;;;;5134113;27;20811;-66
2021/06/20 01:10:55;;;;;;;16.33;14.73;;;;;;;;;;5134933;27;20792;-66
2021/06/20 01:13:22;;;;;;;19.43;16.20;;;;;;;;;;5128683;27;20441;-66
2021/06/20 01:15:51;;;;;;;23.03;18.60;;;;;;;;;;5113879;28;20787;-66
2021/06/20 01:18:21;;;;;;;20.20;17.93;;;;;;;;;;5113755;28;20569;-66
2021/06/20 01:20:48;;;;;;;17.97;16.10;;;;;;;;;;5129723;28;20480;-67
2021/06/20 01:23:17;;;;;;;16.93;14.73;;;;;;;;;;5134209;28;21040;-68
2021/06/20 01:25:44;;;;;;;15.60;14.13;;;;;;;;;;5116881;28;20541;-68
2021/06/20 01:28:13;;;;;;;14.27;12.93;;;;;;;;;;5113989;28;20441;-68
2021/06/20 01:30:43;;;;;;;14.67;13.37;;;;;;;;;;5113942;28;20447;-69
2021/06/20 01:33:12;;;;;;;17.20;14.40;;;;;;;;;;5113637;28;20473;-69
2021/06/20 01:35:39;;;;;;;18.43;14.70;;;;;;;;;;5113478;28;20538;-69
2021/06/20 01:38:10;;;;;;;17.80;16.00;;;;;;;;;;5118790;28;20455;-69
2021/06/20 01:40:39;;;;;;;16.57;14.83;;;;;;;;;;5127015;28;20465;-69
2021/06/20 01:43:06;;;;;;;17.33;15.57;;;;;;;;;;5125642;28;20446;-69
2021/06/20 01:45:36;;;;;;;14.07;12.70;;;;;;;;;;5119351;28;20430;-70
2021/06/20 01:48:03;;;;;;;17.03;14.43;;;;;;;;;;5133816;28;20458;-70
2021/06/20 01:50:31;;;;;;;13.90;12.50;;;;;;;;;;5134462;28;20442;-70
2021/06/20 01:53:02;;;;;;;13.37;12.07;;;;;;;;;;5133497;28;20462;-70
2021/06/20 01:55:29;;;;;;;15.90;13.50;;;;;;;;;;5134299;28;20438;-70
2021/06/20 01:57:58;;;;;;;19.00;12.63;;;;;;;;;;5121176;28;20855;-70
2021/06/20 02:00:25;;;;;;;16.60;12.40;;;;;;;;;;5113439;28;20521;-71
2021/06/20 02:02:52;;;;;;;16.13;12.43;;;;;;;;;;5113894;28;20793;-70
2021/06/20 02:05:24;;;;;;;14.10;12.70;;;;;;;;;;5113539;28;20438;-71
2021/06/20 02:07:51;;;;;;;14.47;12.97;;;;;;;;;;5113536;28;20428;-71
2021/06/20 02:10:19;;;;;;;12.10;11.00;;;;;;;;;;5120165;28;20462;-70
2021/06/20 02:12:46;;;;;;;11.60;9.90;;;;;;;;;;5133335;28;20560;-71
2021/06/20 02:15:16;;;;;;;11.47;10.30;;;;;;;;;;5133133;28;20462;-71
2021/06/20 02:17:44;;;;;;;13.17;10.00;;;;;;;;;;5117049;28;20471;-71
2021/06/20 02:20:12;;;;;;;13.20;11.43;;;;;;;;;;5113490;28;20441;-71
2021/06/20 02:22:40;;;;;;;11.93;10.10;;;;;;;;;;5113238;28;20475;-70
2021/06/20 02:25:07;;;;;;;11.50;10.30;;;;;;;;;;5130733;27;20545;-70
2021/06/20 02:27:35;;;;;;;11.20;9.80;;;;;;;;;;5117258;28;20514;-70
2021/06/20 02:30:02;;;;;;;11.13;9.80;;;;;;;;;;5116764;28;20451;-71
2021/06/20 02:32:30;;;;;;;11.00;10.00;;;;;;;;;;5129182;27;20477;-71
2021/06/20 02:34:57;;;;;;;11.10;9.30;;;;;;;;;;5120069;27;20452;-70
2021/06/20 02:37:25;;;;;;;11.10;10.00;;;;;;;;;;5117045;28;20431;-73
2021/06/20 02:39:52;;;;;;;15.97;9.20;;;;;;;;;;5116692;27;20462;-71
2021/06/20 02:42:19;;;;;;;12.90;11.50;;;;;;;;;;5131347;27;20475;-72
2021/06/20 02:44:48;;;;;;;12.33;10.33;;;;;;;;;;5124944;27;20563;-72
2021/06/20 02:47:15;;;;;;;12.50;9.93;;;;;;;;;;5115969;28;20900;-71
2021/06/20 02:49:44;;;;;;;11.80;9.90;;;;;;;;;;5122867;27;20824;-72
2021/06/20 02:52:13;;;;;;;13.40;10.23;;;;;;;;;;5130888;27;20446;-72
2021/06/20 02:54:49;;;;;;;13.63;10.60;;;;;;;;;;5120371;27;20441;-72
2021/06/20 02:57:17;;;;;;;12.93;10.10;;;;;;;;;;5116727;28;20484;-72
2021/06/20 02:59:44;;;;;;;10.37;9.37;;;;;;;;;;5115965;28;20444;-73
2021/06/20 03:02:11;;;;;;;12.80;11.47;;;;;;;;;;5115996;27;20485;-72
2021/06/20 03:04:38;;;;;;;14.67;10.20;;;;;;;;;;5125907;27;20504;-74
2021/06/20 03:07:07;;;;;;;15.07;9.30;;;;;;;;;;5136560;27;20439;-72
2021/06/20 03:09:35;;;;;;;11.43;8.33;;;;;;;;;;5128204;27;20936;-71
2021/06/20 03:12:02;;;;;;;9.83;8.40;;;;;;;;;;5115924;28;21010;-72
2021/06/20 03:14:30;;;;;;;8.87;7.03;;;;;;;;;;5116294;28;20435;-72
2021/06/20 03:16:57;;;;;;;9.13;6.30;;;;;;;;;;5115962;28;20569;-73
2021/06/20 03:19:25;;;;;;;9.40;7.33;;;;;;;;;;5135507;27;20453;-72
2021/06/20 03:21:57;;;;;;;24.87;6.80;;;;;;;;;;5136313;27;20513;-72
2021/06/20 03:24:25;;;;;;;10.30;6.60;;;;;;;;;;5135683;27;20460;-72
2021/06/20 03:26:52;;;;;;;7.63;5.37;;;;;;;;;;5136405;27;20477;-72
2021/06/20 03:29:20;;;;;;;7.73;5.53;;;;;;;;;;5130384;27;20864;-72
2021/06/20 03:31:47;;;;;;;7.27;5.30;;;;;;;;;;5118579;27;20521;-71
2021/06/20 03:34:14;;;;;;;5.00;4.50;;;;;;;;;;5121357;27;20492;-72
2021/06/20 03:36:41;;;;;;;4.27;3.97;;;;;;;;;;5130265;27;20510;-71
2021/06/20 03:39:09;;;;;;;11.73;4.63;;;;;;;;;;5117527;27;20457;-71
2021/06/20 03:41:38;;;;;;;6.90;4.80;;;;;;;;;;5115191;28;20574;-72
2021/06/20 03:44:06;;;;;;;5.30;4.43;;;;;;;;;;5116309;27;20447;-72
2021/06/20 03:46:33;;;;;;;6.27;5.50;;;;;;;;;;5116133;27;20797;-72
2021/06/20 03:49:00;;;;;;;12.00;6.33;;;;;;;;;;5115606;28;20806;-72
2021/06/20 03:51:28;;;;;;;5.10;4.57;;;;;;;;;;5115721;27;20446;-71
2021/06/20 03:53:55;;;;;;;6.73;4.40;;;;;;;;;;5123598;27;20544;-72
2021/06/20 03:56:22;;;;;;;6.93;4.33;;;;;;;;;;5132568;27;20869;-72
2021/06/20 03:58:51;;;;;;;9.30;3.43;;;;;;;;;;5114752;28;20458;-71
2021/06/20 04:01:18;;;;;;;5.27;3.83;;;;;;;;;;5115673;28;20586;-75
2021/06/20 04:03:45;;;;;;;4.67;3.67;;;;;;;;;;5115288;28;20799;-71
2021/06/20 04:06:13;;;;;;;6.40;4.03;;;;;;;;;;5114921;28;20521;-71
2021/06/20 04:08:40;;;;;;;3.57;3.27;;;;;;;;;;5124636;27;20537;-72
2021/06/20 04:11:08;;;;;;;4.00;3.10;;;;;;;;;;5135684;27;20435;-72
2021/06/20 04:13:35;;;;;;;3.97;3.27;;;;;;;;;;5135286;27;20955;-71
2021/06/20 04:16:03;;;;;;;5.87;3.93;;;;;;;;;;5135097;27;20450;-71
2021/06/20 04:18:31;;;;;;;10.00;3.60;;;;;;;;;;5135719;27;20488;-71
2021/06/20 04:20:58;;;;;;;7.50;3.70;;;;;;;;;;5121164;27;20446;-71
2021/06/20 04:23:25;;;;;;;6.27;3.87;;;;;;;;;;5115117;28;20443;-71
2021/06/20 04:25:52;;;;;;;5.40;3.27;;;;;;;;;;5114789;28;20451;-72
2021/06/20 04:28:21;;;;;;;6.63;4.17;;;;;;;;;;5114466;28;20924;-71
2021/06/20 04:30:53;;;;;;;6.83;3.93;;;;;;;;;;5132894;27;20458;-72
2021/06/20 04:33:22;;;;;;;6.30;4.33;;;;;;;;;;5117357;27;21003;-71
2021/06/20 04:35:49;;;;;;;5.90;4.20;;;;;;;;;;5114492;28;20546;-71
2021/06/20 04:38:16;;;;;;;8.33;4.60;;;;;;;;;;5114317;28;20440;-72
2021/06/20 04:40:44;;;;;;;4.70;4.30;;;;;;;;;;5124692;27;20545;-72
2021/06/20 04:43:23;;;;;;;7.17;4.97;;;;;;;;;;5135045;27;20897;-70
2021/06/20 04:45:50;;;;;;;10.10;5.00;;;;;;;;;;5135055;27;20432;-69
2021/06/20 04:48:17;;;;;;;14.83;5.53;;;;;;;;;;5134324;27;20442;-72
2021/06/20 04:50:46;;;;;;;9.07;5.73;;;;;;;;;;5134419;27;20439;-73
2021/06/20 04:53:15;;;;;;;8.03;5.43;;;;;;;;;;5134803;27;20438;-73
2021/06/20 04:55:42;;;;;;;10.00;6.00;;;;;;;;;;5135058;27;20534;-73
2021/06/20 04:58:09;;;;;;;7.57;5.37;;;;;;;;;;5132963;27;20451;-72
2021/06/20 05:00:37;;;;;;;7.10;6.47;;;;;;;;;;5134018;27;20446;-73
2021/06/20 05:03:04;;;;;;;12.30;6.87;;;;;;;;;;5134412;27;20476;-73
2021/06/20 05:05:31;;;;;;;13.10;6.73;;;;;;;;;;5134307;27;20442;-73
2021/06/20 05:08:00;;;;;;;8.47;6.40;;;;;;;;;;5134431;27;20446;-73
2021/06/20 05:10:28;;;;;;;10.73;7.20;;;;;;;;;;5134177;27;20435;-72
2021/06/20 05:12:57;;;;;;;8.93;6.27;;;;;;;;;;5134471;27;20467;-73
2021/06/20 05:15:26;;;;;;;10.30;7.13;;;;;;;;;;5133416;27;20549;-72
2021/06/20 05:17:55;;;;;;;9.80;8.00;;;;;;;;;;5134516;27;20574;-72
2021/06/20 05:20:23;;;;;;;9.03;8.00;;;;;;;;;;5127088;28;20493;-72
2021/06/20 05:22:50;;;;;;;11.87;8.93;;;;;;;;;;5120271;28;20485;-71
2021/06/20 05:25:19;;;;;;;11.93;8.30;;;;;;;;;;5134428;28;20924;-71
2021/06/20 05:27:46;;;;;;;12.40;8.23;;;;;;;;;;5126756;28;20458;-70
2021/06/20 05:30:15;;;;;;;13.07;9.00;;;;;;;;;;5132926;28;20536;-70
2021/06/20 05:32:42;;;;;;;10.77;7.50;;;;;;;;;;5117404;28;20464;-71
2021/06/20 05:35:09;;;;;;;14.73;9.57;;;;;;;;;;5134153;28;20455;-70
2021/06/20 05:37:36;;;;;;;10.83;9.73;;;;;;;;;;5133808;28;20438;-70
2021/06/20 05:40:05;;;;;;;13.13;8.60;;;;;;;;;;5133923;28;20447;-70
2021/06/20 05:42:34;;;;;;;12.20;9.03;;;;;;;;;;5117610;28;20478;-70
2021/06/20 05:45:01;;;;;;;10.30;9.20;;;;;;;;;;5113306;28;20443;-70
2021/06/20 05:47:28;;;;;;;10.60;9.60;;;;;;;;;;5113969;28;20444;-70
2021/06/20 05:49:55;;;;;;;12.27;10.70;;;;;;;;;;5113521;28;20431;-70
2021/06/20 05:52:23;;;;;;;12.30;9.10;;;;;;;;;;5113567;28;20441;-70
2021/06/20 05:54:51;;;;;;;12.60;10.07;;;;;;;;;;5113787;28;20526;-70
2021/06/20 05:57:19;;;;;;;9.93;8.60;;;;;;;;;;5113320;28;20462;-69
2021/06/20 05:59:47;;;;;;;10.53;9.30;;;;;;;;;;5114817;28;20435;-70
2021/06/20 06:02:15;;;;;;;11.20;9.03;;;;;;;;;;5117550;28;20467;-70
2021/06/20 06:04:42;;;;;;;9.43;8.53;;;;;;;;;;5117345;28;20854;-70
2021/06/20 06:07:09;;;;;;;11.23;9.80;;;;;;;;;;5129432;27;20462;-70
2021/06/20 06:09:38;;;;;;;9.87;8.53;;;;;;;;;;5137542;27;20881;-70
2021/06/20 06:12:06;;;;;;;11.13;9.57;;;;;;;;;;5137570;27;20525;-70
2021/06/20 06:14:33;;;;;;;11.83;9.70;;;;;;;;;;5138426;27;20435;-72
2021/06/20 06:17:01;;;;;;;10.90;9.80;;;;;;;;;;5138726;27;20997;-69
2021/06/20 06:19:28;;;;;;;10.83;9.90;;;;;;;;;;5137708;27;20435;-70
2021/06/20 06:21:56;;;;;;;11.77;9.13;;;;;;;;;;5137162;27;20562;-69
2021/06/20 06:24:23;;;;;;;17.07;9.07;;;;;;;;;;5137461;27;20535;-69
2021/06/20 06:26:50;;;;;;;11.17;7.80;;;;;;;;;;5134686;27;20949;-69
2021/06/20 06:29:17;;;;;;;9.07;8.17;;;;;;;;;;5117243;28;20519;-69
2021/06/20 06:31:45;;;;;;;8.87;7.63;;;;;;;;;;5116467;28;20486;-69
2021/06/20 06:34:13;;;;;;;13.20;8.70;;;;;;;;;;5116569;28;20440;-69
2021/06/20 06:36:40;;;;;;;9.60;8.77;;;;;;;;;;5116608;28;20446;-69
2021/06/20 06:39:07;;;;;;;11.57;7.63;;;;;;;;;;5116722;28;20447;-69
2021/06/20 06:41:35;;;;;;;9.23;8.53;;;;;;;;;;5116747;28;20443;-69
2021/06/20 06:44:02;;;;;;;8.60;7.80;;;;;;;;;;5116606;28;20550;-69
2021/06/20 06:46:29;;;;;;;9.13;7.73;;;;;;;;;;5116464;28;20531;-69
2021/06/20 06:48:56;;;;;;;7.37;6.67;;;;;;;;;;5116695;28;20444;-69
2021/06/20 06:51:25;;;;;;;7.87;7.00;;;;;;;;;;5116898;28;20448;-69
2021/06/20 06:53:52;;;;;;;7.30;6.60;;;;;;;;;;5116522;28;20447;-69
2021/06/20 06:56:19;;;;;;;12.30;7.10;;;;;;;;;;5116759;28;20437;-69
2021/06/20 06:58:46;;;;;;;10.50;6.27;;;;;;;;;;5115936;28;20447;-69
2021/06/20 07:01:14;;;;;;;7.30;6.70;;;;;;;;;;5116034;28;20444;-68
2021/06/20 07:03:41;;;;;;;7.03;6.33;;;;;;;;;;5116434;28;20476;-75
2021/06/20 07:06:10;;;;;;;6.80;6.20;;;;;;;;;;5116472;28;20528;-69
2021/06/20 07:08:38;;;;;;;5.60;5.20;;;;;;;;;;5115701;28;20444;-69
2021/06/20 07:11:05;;;;;;;7.20;6.60;;;;;;;;;;5115921;28;20800;-69
2021/06/20 07:13:33;;;;;;;8.93;5.83;;;;;;;;;;5116181;28;20442;-69
2021/06/20 07:16:00;;;;;;;6.60;5.80;;;;;;;;;;5116340;28;20551;-70
2021/06/20 07:18:27;;;;;;;8.53;6.93;;;;;;;;;;5116190;28;20483;-70
2021/06/20 07:20:54;;;;;;;7.47;6.43;;;;;;;;;;5115772;28;20444;-70
2021/06/20 07:23:21;;;;;;;7.20;6.60;;;;;;;;;;5115883;28;20473;-70
2021/06/20 07:25:50;;;;;;;5.67;5.17;;;;;;;;;;5115625;28;20474;-70
2021/06/20 07:28:17;;;;;;;5.30;4.80;;;;;;;;;;5115275;28;20995;-70
2021/06/20 07:30:48;;;;;;;7.50;5.63;;;;;;;;;;5115417;28;20544;-70
2021/06/20 07:33:15;;;;;;;6.53;4.77;;;;;;;;;;5115799;28;20442;-70
2021/06/20 07:35:45;;;;;;;7.30;6.00;;;;;;;;;;5115997;28;20495;-70
2021/06/20 07:38:12;;;;;;;6.10;5.50;;;;;;;;;;5115355;28;20442;-70
2021/06/20 07:40:39;;;;;;;9.40;5.30;;;;;;;;;;5115014;28;20445;-70
2021/06/20 07:43:08;;;;;;;6.27;5.70;;;;;;;;;;5115469;28;20797;-70
2021/06/20 07:45:36;;;;;;;6.90;6.27;;;;;;;;;;5115892;28;20478;-70
2021/06/20 07:48:06;;;;;;;7.50;6.80;;;;;;;;;;5115270;28;20450;-70
2021/06/20 07:50:33;;;;;;;7.83;7.33;;;;;;;;;;5115027;28;20450;-70
2021/06/20 07:53:00;;;;;;;8.77;7.60;;;;;;;;;;5115246;28;20450;-70
2021/06/20 07:55:27;;;;;;;8.73;7.20;;;;;;;;;;5114969;28;20434;-70
2021/06/20 07:57:55;;;;;;;9.10;7.17;;;;;;;;;;5115138;27;20443;-70
2021/06/20 08:00:23;;;;;;;7.53;6.73;;;;;;;;;;5116771;27;20480;-70
2021/06/20 08:02:50;;;;;;;7.63;6.90;;;;;;;;;;5124602;27;20478;-69
2021/06/20 08:05:18;;;;;;;8.07;6.40;;;;;;;;;;5123458;27;20465;-70
2021/06/20 08:07:45;;;;;;;7.77;7.03;;;;;;;;;;5132995;27;20434;-69
2021/06/20 08:10:12;;;;;;;8.20;7.50;;;;;;;;;;5116296;27;20445;-69
2021/06/20 08:12:41;;;;;;;9.77;7.67;;;;;;;;;;5114585;28;20481;-69
2021/06/20 08:15:09;;;;;;;9.80;7.40;;;;;;;;;;5118891;27;20489;-69
2021/06/20 08:17:37;;;;;;;8.03;7.23;;;;;;;;;;5135369;27;20567;-70
2021/06/20 08:20:06;;;;;;;10.80;6.47;;;;;;;;;;5117186;28;20952;-69
2021/06/20 08:22:33;;;;;;;10.20;6.70;;;;;;;;;;5129136;27;20502;-69
2021/06/20 08:25:00;;;;;;;9.87;7.77;;;;;;;;;;5135234;27;20474;-71
2021/06/20 08:27:27;;;;;;;7.40;6.20;;;;;;;;;;5134814;27;20536;-69
2021/06/20 08:29:55;;;;;;;8.23;6.80;;;;;;;;;;5135496;27;20433;-70
2021/06/20 08:32:23;;;;;;;7.60;6.83;;;;;;;;;;5135076;27;20435;-70
2021/06/20 08:34:52;;;;;;;7.63;7.07;;;;;;;;;;5135364;27;20498;-68
2021/06/20 08:37:19;;;;;;;6.87;6.47;;;;;;;;;;5134205;27;20431;-68
2021/06/20 08:39:46;;;;;;;7.20;6.47;;;;;;;;;;5128314;27;20457;-69
2021/06/20 08:42:13;;;;;;;6.47;5.97;;;;;;;;;;5114522;28;20946;-75
2021/06/20 08:44:41;;;;;;;9.17;6.57;;;;;;;;;;5114294;27;20489;-69
2021/06/20 08:47:08;;;;;;;6.93;5.90;;;;;;;;;;5114620;28;20538;-68
2021/06/20 08:49:35;;;;;;;12.50;5.10;;;;;;;;;;5120246;27;20455;-69
2021/06/20 08:52:04;;;;;;;6.53;5.20;;;;;;;;;;5126915;27;20487;-69
2021/06/20 08:54:32;;;;;;;4.60;4.20;;;;;;;;;;5113582;28;20453;-69
2021/06/20 08:57:00;;;;;;;4.27;3.97;;;;;;;;;;5119947;27;20457;-69
2021/06/20 08:59:27;;;;;;;3.90;3.70;;;;;;;;;;5114448;28;20518;-69
2021/06/20 09:01:56;;;;;;;5.80;4.50;;;;;;;;;;5119392;27;20515;-70
2021/06/20 09:04:28;;;;;;;10.53;4.67;;;;;;;;;;5123152;27;20470;-69
2021/06/20 09:06:56;;;;;;;5.63;5.13;;;;;;;;;;5128855;27;20447;-69
2021/06/20 09:09:32;;;;;;;7.43;5.13;;;;;;;;;;5116340;28;20522;-68
2021/06/20 09:12:09;;;;;;;4.60;4.23;;;;;;;;;;5114827;28;20461;-70
2021/06/20 09:14:44;;;;;;;4.10;3.70;;;;;;;;;;5114206;28;20463;-69
2021/06/20 09:17:11;;;;;;;4.50;4.10;;;;;;;;;;5113241;28;20477;-69
2021/06/20 09:19:38;;;;;;;5.40;5.00;;;;;;;;;;5114055;28;20440;-69
2021/06/20 09:22:08;;;;;;;4.60;4.20;;;;;;;;;;5113344;28;20984;-69
2021/06/20 09:24:38;;;;;;;4.67;4.27;;;;;;;;;;5117443;28;20606;-69
2021/06/20 09:27:06;;;;;;;4.70;4.30;;;;;;;;;;5134356;28;20457;-69
2021/06/20 09:29:33;;;;;;;4.50;4.20;;;;;;;;;;5134295;28;20448;-69
2021/06/20 09:32:02;;;;;;;5.93;3.80;;;;;;;;;;5127161;28;20983;-69
2021/06/20 09:34:29;;;;;;;5.80;4.60;;;;;;;;;;5124952;27;20481;-68
2021/06/20 09:37:05;;;;;;;4.53;4.23;;;;;;;;;;5124923;27;20571;-68
2021/06/20 09:39:32;;;;;;;6.67;4.50;;;;;;;;;;5117617;28;20439;-68
2021/06/20 09:42:03;;;;;;;5.63;4.27;;;;;;;;;;5126771;27;20447;-69
2021/06/20 09:44:37;;;;;;;4.73;4.23;;;;;;;;;;5132364;27;20522;-73
2021/06/20 09:47:05;;;;;;;3.67;3.47;;;;;;;;;;5117439;28;20529;-69
2021/06/20 09:49:33;;;;;;;6.13;3.60;;;;;;;;;;5120695;27;20473;-69
2021/06/20 09:52:00;;;;;;;3.03;2.83;;;;;;;;;;5137368;27;20479;-69
2021/06/20 09:54:31;;;;;;;5.10;3.43;;;;;;;;;;5137903;27;20502;-68
2021/06/20 09:56:58;;;;;;;3.20;3.00;;;;;;;;;;5137277;27;20440;-68
2021/06/20 09:59:31;;;;;;;3.43;3.20;;;;;;;;;;5117430;28;21071;-69
2021/06/20 10:02:08;;;;;;;3.70;3.40;;;;;;;;;;5129308;27;20459;-68
2021/06/20 10:04:36;;;;;;;3.23;3.03;;;;;;;;;;5118026;27;21012;-68
2021/06/20 10:07:03;;;;;;;4.17;3.77;;;;;;;;;;5117448;28;20442;-68
2021/06/20 10:09:31;;;;;;;4.27;3.87;;;;;;;;;;5136408;27;20529;-69
2021/06/20 10:11:58;;;;;;;3.40;3.10;;;;;;;;;;5137789;27;21042;-68
2021/06/20 10:14:26;;;;;;;3.70;3.30;;;;;;;;;;5138035;27;20540;-68
2021/06/20 10:16:56;;;;;;;3.57;3.30;;;;;;;;;;5133939;27;20573;-68
2021/06/20 10:19:26;;;;;;;2.80;2.70;;;;;;;;;;5128579;27;20521;-68
2021/06/20 10:22:01;;;;;;;4.07;3.13;;;;;;;;;;5130769;27;20517;-68
2021/06/20 10:24:28;;;;;;;3.03;2.80;;;;;;;;;;5122774;27;20459;-69
2021/06/20 10:27:00;;;;;;;3.17;2.97;;;;;;;;;;5117246;28;20541;-69
2021/06/20 10:29:28;;;;;;;5.23;2.90;;;;;;;;;;5126611;27;20455;-69
2021/06/20 10:31:58;;;;;;;4.00;2.80;;;;;;;;;;5137825;27;20441;-69
2021/06/20 10:34:27;;;;;;;3.53;2.77;;;;;;;;;;5126326;27;20686;-69
2021/06/20 10:36:55;;;;;;;5.07;2.83;;;;;;;;;;5117357;28;20441;-69
2021/06/20 10:39:22;;;;;;;2.60;2.40;;;;;;;;;;5117278;28;20531;-69
2021/06/20 10:41:50;;;;;;;3.17;2.53;;;;;;;;;;5116671;28;20455;-69
2021/06/20 10:44:17;;;;;;;4.90;2.33;;;;;;;;;;5117329;28;20505;-69
2021/06/20 10:46:54;;;;;;;2.30;2.10;;;;;;;;;;5119250;27;21026;-69
2021/06/20 10:49:23;;;;;;;2.93;2.73;;;;;;;;;;5137531;27;20458;-69
2021/06/20 10:51:50;;;;;;;4.47;2.67;;;;;;;;;;5130658;27;20437;-68
2021/06/20 10:54:24;;;;;;;2.70;2.30;;;;;;;;;;5117934;28;20445;-68
2021/06/20 10:56:57;;;;;;;2.67;2.47;;;;;;;;;;5117539;28;20461;-68
2021/06/20 10:59:24;;;;;;;4.87;2.73;;;;;;;;;;5116933;28;20430;-69
2021/06/20 11:01:51;;;;;;;3.87;3.03;;;;;;;;;;5116332;28;20437;-69
2021/06/20 11:04:19;;;;;;;3.00;2.80;;;;;;;;;;5115993;28;20994;-68
2021/06/20 11:06:54;;;;;;;3.23;2.90;;;;;;;;;;5130647;27;20464;-68
2021/06/20 11:09:22;;;;;;;2.60;2.40;;;;;;;;;;5137932;27;20843;-69
2021/06/20 11:11:50;;;;;;;2.40;2.30;;;;;;;;;;5136816;27;20461;-68
2021/06/20 11:14:19;;;;;;;2.67;2.47;;;;;;;;;;5136872;27;20440;-68
2021/06/20 11:16:46;;;;;;;4.23;2.80;;;;;;;;;;5136097;27;20477;-67
2021/06/20 11:19:15;;;;;;;2.40;2.20;;;;;;;;;;5137107;27;20473;-68
2021/06/20 11:21:43;;;;;;;2.67;2.47;;;;;;;;;;5135602;27;20457;-68
2021/06/20 11:24:14;;;;;;;2.47;2.27;;;;;;;;;;5136696;27;20470;-68
2021/06/20 11:26:51;;;;;;;2.97;2.67;;;;;;;;;;5135553;27;20426;-69
2021/06/20 11:29:19;;;;;;;2.90;2.70;;;;;;;;;;5115648;28;20522;-69
2021/06/20 11:31:47;;;;;;;3.03;2.73;;;;;;;;;;5115557;28;20500;-68
2021/06/20 11:34:14;;;;;;;2.93;2.50;;;;;;;;;;5116054;28;20530;-69
2021/06/20 11:36:42;;;;;;;2.50;2.40;;;;;;;;;;5115792;28;20527;-68
2021/06/20 11:39:10;;;;;;;2.73;2.53;;;;;;;;;;5116054;28;20850;-68
2021/06/20 11:41:43;;;;;;;3.10;2.80;;;;;;;;;;5115578;28;20480;-68
2021/06/20 11:44:10;;;;;;;2.47;2.30;;;;;;;;;;5115987;28;20464;-67
2021/06/20 11:46:38;;;;;;;3.00;2.80;;;;;;;;;;5115881;28;20532;-68
2021/06/20 11:49:07;;;;;;;3.10;2.90;;;;;;;;;;5115668;28;20447;-68
2021/06/20 11:51:36;;;;;;;2.50;2.40;;;;;;;;;;5115435;28;20988;-68
2021/06/20 11:54:10;;;;;;;3.10;2.50;;;;;;;;;;5115369;28;20873;-67
2021/06/20 11:56:38;;;;;;;2.43;2.20;;;;;;;;;;5114991;28;20431;-68
2021/06/20 11:59:07;;;;;;;2.40;2.20;;;;;;;;;;5115153;28;20471;-68
2021/06/20 12:01:48;;;;;;;5.13;3.10;;;;;;;;;;5115171;28;20437;-68
2021/06/20 12:04:16;;;;;;;3.30;2.80;;;;;;;;;;5117304;28;20485;-68
2021/06/20 12:06:44;;;;;;;2.83;2.60;;;;;;;;;;5115174;28;20947;-67
2021/06/20 12:09:11;;;;;;;3.60;3.07;;;;;;;;;;5115094;28;20450;-68
2021/06/20 12:11:39;;;;;;;2.90;2.60;;;;;;;;;;5115107;28;20553;-68
2021/06/20 12:14:08;;;;;;;3.20;3.00;;;;;;;;;;5114830;28;20443;-68
2021/06/20 12:16:46;;;;;;;4.00;2.50;;;;;;;;;;5114675;28;20441;-68
2021/06/20 12:19:14;;;;;;;3.90;2.57;;;;;;;;;;5116896;28;20518;-68
2021/06/20 12:21:41;;;;;;;3.40;3.10;;;;;;;;;;5114321;28;20538;-68
2021/06/20 12:24:12;;;;;;;3.10;2.77;;;;;;;;;;5114715;28;20471;-68
2021/06/20 12:26:39;;;;;;;2.93;2.73;;;;;;;;;;5114194;28;20404;-68
2021/06/20 12:29:07;;;;;;;3.50;3.17;;;;;;;;;;5113862;28;20986;-68
2021/06/20 12:31:35;;;;;;;2.60;2.40;;;;;;;;;;5114165;28;20531;-68
2021/06/20 12:34:02;;;;;;;2.77;2.20;;;;;;;;;;5115017;28;20482;-68
2021/06/20 12:36:30;;;;;;;3.10;2.33;;;;;;;;;;5114071;28;20442;-68
2021/06/20 12:39:00;;;;;;;2.40;2.30;;;;;;;;;;5114031;28;20552;-68
2021/06/20 12:41:28;;;;;;;2.60;2.40;;;;;;;;;;5114511;28;20461;-68
2021/06/20 12:43:59;;;;;;;2.43;2.33;;;;;;;;;;5114067;28;20439;-68
2021/06/20 12:46:30;;;;;;;2.90;2.60;;;;;;;;;;5113988;28;20441;-68
2021/06/20 12:48:59;;;;;;;2.60;2.50;;;;;;;;;;5114415;28;20435;-68
2021/06/20 12:51:37;;;;;;;3.70;2.00;;;;;;;;;;5114498;28;20437;-68
2021/06/20 12:54:06;;;;;;;2.50;2.30;;;;;;;;;;5114054;28;20497;-68
2021/06/20 12:56:34;;;;;;;3.33;2.43;;;;;;;;;;5114351;28;20451;-68
2021/06/20 12:59:02;;;;;;;2.43;2.23;;;;;;;;;;5113900;28;20432;-68
2021/06/20 13:01:30;;;;;;;3.47;2.63;;;;;;;;;;5114153;28;20525;-68
2021/06/20 13:04:07;;;;;;;6.30;2.53;;;;;;;;;;5114235;28;20444;-68
2021/06/20 13:06:34;;;;;;;2.80;2.60;;;;;;;;;;5114760;28;20437;-68
2021/06/20 13:09:01;;;;;;;3.67;2.60;;;;;;;;;;5113402;28;20425;-68
2021/06/20 13:11:29;;;;;;;2.60;2.40;;;;;;;;;;5114029;28;20764;-68
2021/06/20 13:13:56;;;;;;;2.40;2.30;;;;;;;;;;5113950;28;20505;-68
2021/06/20 13:16:23;;;;;;;2.43;2.30;;;;;;;;;;5113479;28;20861;-68
2021/06/20 13:18:52;;;;;;;2.53;2.33;;;;;;;;;;5114022;28;20419;-68
2021/06/20 13:21:19;;;;;;;2.53;2.03;;;;;;;;;;5113479;28;20533;-68
2021/06/20 13:23:47;;;;;;;2.47;2.20;;;;;;;;;;5113669;28;20925;-69
2021/06/20 13:26:14;;;;;;;2.80;2.60;;;;;;;;;;5114876;28;20441;-68
2021/06/20 13:28:41;;;;;;;2.30;2.10;;;;;;;;;;5114010;28;20525;-68
2021/06/20 13:31:08;;;;;;;2.30;2.00;;;;;;;;;;5114922;28;20492;-68
2021/06/20 13:33:36;;;;;;;2.90;2.10;;;;;;;;;;5115284;28;20421;-68
2021/06/20 13:36:04;;;;;;;3.67;2.80;;;;;;;;;;5115004;28;20473;-67
2021/06/20 13:38:32;;;;;;;2.60;2.33;;;;;;;;;;5113868;28;20965;-68
2021/06/20 13:40:59;;;;;;;2.27;2.07;;;;;;;;;;5114454;28;20427;-68
2021/06/20 13:43:26;;;;;;;3.13;2.33;;;;;;;;;;5114047;28;20522;-67
2021/06/20 13:45:54;;;;;;;2.80;2.57;;;;;;;;;;5113352;28;20461;-69
2021/06/20 13:48:21;;;;;;;4.57;2.27;;;;;;;;;;5113893;28;20425;-68
2021/06/20 13:50:48;;;;;;;2.27;1.90;;;;;;;;;;5113415;28;20999;-68
2021/06/20 13:53:17;;;;;;;4.63;2.60;;;;;;;;;;5113359;28;20955;-68
2021/06/20 13:55:44;;;;;;;2.30;2.10;;;;;;;;;;5113457;28;20419;-68
2021/06/20 13:58:13;;;;;;;2.70;2.10;;;;;;;;;;5113600;28;20436;-68
2021/06/20 14:00:40;;;;;;;1.87;1.77;;;;;;;;;;5113096;28;20972;-68
2021/06/20 14:03:07;;;;;;;2.27;2.00;;;;;;;;;;5113830;28;20530;-68
2021/06/20 14:05:35;;;;;;;2.27;1.90;;;;;;;;;;5113529;28;20823;-67
2021/06/20 14:08:02;;;;;;;2.63;2.43;;;;;;;;;;5113242;28;20452;-67
2021/06/20 14:10:31;;;;;;;2.10;1.90;;;;;;;;;;5113569;28;20438;-67
2021/06/20 14:12:59;;;;;;;2.50;2.10;;;;;;;;;;5113322;28;20430;-69
2021/06/20 14:15:26;;;;;;;2.63;1.93;;;;;;;;;;5113045;28;20456;-67
2021/06/20 14:17:54;;;;;;;2.10;2.00;;;;;;;;;;5113214;28;20485;-68
2021/06/20 14:20:21;;;;;;;2.10;2.00;;;;;;;;;;5114254;28;20435;-68
2021/06/20 14:22:48;;;;;;;2.63;1.80;;;;;;;;;;5117120;28;20916;-67
2021/06/20 14:25:16;;;;;;;2.23;2.03;;;;;;;;;;5117927;28;20541;-68
2021/06/20 14:27:44;;;;;;;4.23;2.20;;;;;;;;;;5117286;28;20415;-67
2021/06/20 14:30:14;;;;;;;5.37;2.00;;;;;;;;;;5117024;28;20448;-68
2021/06/20 14:32:41;;;;;;;2.37;2.20;;;;;;;;;;5116854;28;20415;-68
2021/06/20 14:35:09;;;;;;;2.40;2.20;;;;;;;;;;5116924;28;20446;-68
2021/06/20 14:37:39;;;;;;;6.80;2.73;;;;;;;;;;5116813;28;20419;-68
2021/06/20 14:40:07;;;;;;;2.17;2.00;;;;;;;;;;5116566;28;20459;-68
2021/06/20 14:42:34;;;;;;;2.50;2.00;;;;;;;;;;5116589;28;20417;-68